createdAt,value
2022-10-29T00:03:23.847Z,12.4
2022-10-29T00:09:00.410Z,12.6
2022-10-29T00:14:32.336Z,12.3
2022-10-29T00:19:54.543Z,12.4
2022-10-29T00:25:25.558Z,12.1
2022-10-29T00:30:52.397Z,11.7
2022-10-29T00:36:22.753Z,11.8
2022-10-29T00:42:11.362Z,11.7
2022-10-29T00:47:29.071Z,12.1
2022-10-29T00:53:22.402Z,12
2022-10-29T00:58:45.152Z,12
2022-10-29T01:04:07.334Z,12.3
2022-10-29T01:09:41.970Z,12.5
2022-10-29T01:15:17.055Z,12.8
2022-10-29T01:21:11.244Z,12
2022-10-29T01:26:41.123Z,11.8
2022-10-29T01:32:10.648Z,11.6
2022-10-29T01:37:41.172Z,11.3
2022-10-29T01:43:14.236Z,11.3
2022-10-29T01:48:33.206Z,11.3
2022-10-29T01:54:12.807Z,11.1
2022-10-29T01:59:51.447Z,11
2022-10-29T02:05:19.889Z,11.1
2022-10-29T02:10:44.905Z,10.6
2022-10-29T02:16:14.953Z,10.9
2022-10-29T02:21:50.072Z,10.7
2022-10-29T02:27:21.294Z,10.9
2022-10-29T02:33:17.937Z,10.8
2022-10-29T02:38:26.103Z,10.8
2022-10-29T02:44:21.741Z,10.9
2022-10-29T02:49:55.737Z,10.7
2022-10-29T02:55:23.141Z,10.5
2022-10-29T03:00:58.756Z,10.6
2022-10-29T03:06:36.851Z,10.5
2022-10-29T03:11:55.681Z,10.6
2022-10-29T03:17:33.906Z,10.4
2022-10-29T03:23:06.613Z,10.3
2022-10-29T03:28:23.416Z,10.3
2022-10-29T03:33:59.840Z,10.8
2022-10-29T03:39:43.127Z,10.8
2022-10-29T03:45:18.669Z,10.6
2022-10-29T03:50:41.998Z,10.7
2022-10-29T03:56:29.416Z,11
2022-10-29T04:02:00.219Z,11
2022-10-29T04:07:28.559Z,11.1
2022-10-29T04:13:06.186Z,11.3
2022-10-29T04:18:23.689Z,11.1
2022-10-29T04:29:35.652Z,10.1
2022-10-29T04:35:03.293Z,10.1
2022-10-29T04:40:29.553Z,10.3
2022-10-29T04:46:17.746Z,10.4
2022-10-29T04:51:52.524Z,10.4
2022-10-29T04:57:30.704Z,10.4
2022-10-29T05:02:51.772Z,10.1
2022-10-29T05:08:19.716Z,10
2022-10-29T05:14:06.102Z,10.3
2022-10-29T05:19:35.887Z,10.4
2022-10-29T05:24:53.871Z,10
2022-10-29T05:30:44.469Z,9.9
2022-10-29T05:36:11.446Z,9.7
2022-10-29T05:41:33.544Z,9.5
2022-10-29T05:47:15.715Z,9.4
2022-10-29T05:52:58.247Z,9.4
2022-10-29T05:58:32.429Z,9.4
2022-10-29T06:03:42.681Z,9.3
2022-10-29T06:09:32.766Z,9.6
2022-10-29T06:14:51.227Z,9.5
2022-10-29T06:20:41.464Z,9.6
2022-10-29T06:26:02.823Z,9.4
2022-10-29T06:31:45.069Z,9.5
2022-10-29T06:37:09.605Z,9.5
2022-10-29T06:42:29.438Z,9.5
2022-10-29T06:48:11.585Z,9.5
2022-10-29T06:53:55.355Z,9.5
2022-10-29T06:59:24.226Z,9.6
2022-10-29T07:04:42.469Z,9.7
2022-10-29T07:10:19.025Z,9.9
2022-10-29T07:15:50.922Z,10.1
2022-10-29T07:21:34.687Z,10.2
2022-10-29T07:27:11.478Z,10.4
2022-10-29T07:32:26.707Z,10.4
2022-10-29T07:38:21.336Z,10.6
2022-10-29T07:43:39.112Z,10.7
2022-10-29T07:49:23.236Z,10.9
2022-10-29T07:54:47.873Z,11
2022-10-29T08:00:19.048Z,11.3
2022-10-29T08:05:56.665Z,11.3
2022-10-29T08:11:29.296Z,11.2
2022-10-29T08:17:15.382Z,11
2022-10-29T08:22:48.400Z,11.1
2022-10-29T08:27:59.602Z,11.1
2022-10-29T08:33:45.403Z,11
2022-10-29T08:39:27.232Z,11
2022-10-29T08:45:01.751Z,11.1
2022-10-29T08:50:26.729Z,11.1
2022-10-29T08:55:58.054Z,11.2
2022-10-29T09:01:20.868Z,11.5
2022-10-29T09:07:00.052Z,11.3
2022-10-29T09:12:47.475Z,11.3
2022-10-29T09:18:19.952Z,11.5
2022-10-29T09:29:21.451Z,11.9
2022-10-29T09:35:01.015Z,12.1
2022-10-29T09:40:36.488Z,12.4
2022-10-29T09:45:53.086Z,12.2
2022-10-29T09:51:33.049Z,12.3
2022-10-29T09:56:58.835Z,12.6
2022-10-29T10:02:31.390Z,13.1
2022-10-29T10:08:14.681Z,13.1
2022-10-29T10:13:42.250Z,13.3
2022-10-29T10:19:13.985Z,13.6
2022-10-29T10:25:04.605Z,14.2
2022-10-29T10:30:24.032Z,13.9
2022-10-29T10:36:04.755Z,14.3
2022-10-29T10:41:31.694Z,14.4
2022-10-29T10:47:00.736Z,14.8
2022-10-29T10:52:49.848Z,14.8
2022-10-29T10:58:07.949Z,15.5
2022-10-29T11:03:39.087Z,16.1
2022-10-29T11:09:31.462Z,16.4
2022-10-29T11:15:07.681Z,16
2022-10-29T11:25:58.163Z,17
2022-10-29T11:31:39.146Z,17.2
2022-10-29T11:37:13.981Z,17.4
2022-10-29T11:42:36.017Z,17.5
2022-10-29T11:48:08.837Z,17.7
2022-10-29T11:53:52.122Z,17.8
2022-10-29T11:59:39.147Z,18
2022-10-29T12:05:15.744Z,18.1
2022-10-29T12:10:33.976Z,18.2
2022-10-29T12:16:07.144Z,18.8
2022-10-29T12:22:01.045Z,18.2
2022-10-29T12:27:29.327Z,18.4
2022-10-29T12:32:46.323Z,19
2022-10-29T12:38:41.195Z,18.4
2022-10-29T12:44:07.690Z,18.3
2022-10-29T12:49:51.692Z,18.3
2022-10-29T12:55:02.474Z,18.4
2022-10-29T13:00:59.404Z,18.5
2022-10-29T13:06:26.605Z,18.5
2022-10-29T13:12:02.112Z,18.5
2022-10-29T13:17:20.033Z,18.3
2022-10-29T13:22:58.365Z,18.3
2022-10-29T13:28:43.946Z,18.2
2022-10-29T13:34:35.006Z,18.3
2022-10-29T13:39:55.527Z,18.5
2022-10-29T13:45:40.438Z,18.5
2022-10-29T13:50:56.228Z,18.6
2022-10-29T13:56:48.299Z,18.6
2022-10-29T14:02:10.977Z,18.8
2022-10-29T14:08:10.092Z,18.6
2022-10-29T14:13:35.654Z,18.6
2022-10-29T14:18:53.085Z,18.6
2022-10-29T14:24:38.984Z,18.4
2022-10-29T14:30:19.828Z,18.4
2022-10-29T14:35:47.254Z,18.5
2022-10-29T14:41:26.130Z,18.4
2022-10-29T14:46:58.028Z,18.2
2022-10-29T14:52:36.635Z,17.9
2022-10-29T14:58:15.172Z,17.6
2022-10-29T15:03:39.354Z,17.6
2022-10-29T15:09:13.325Z,17.6
2022-10-29T15:14:42.301Z,17.6
2022-10-29T15:20:08.927Z,17.2
2022-10-29T15:25:42.001Z,16.9
2022-10-29T15:31:43.327Z,16.8
2022-10-29T15:36:50.586Z,16.7
2022-10-29T15:42:44.672Z,16.6
2022-10-29T15:48:03.286Z,16.6
2022-10-29T15:53:35.314Z,16.6
2022-10-29T15:59:30.538Z,16.4
2022-10-29T16:04:57.448Z,16.1
2022-10-29T16:10:29.606Z,15.6
2022-10-29T16:15:52.136Z,15.1
2022-10-29T16:21:24.384Z,15.2
2022-10-29T16:27:10.849Z,15.5
2022-10-29T16:32:39.573Z,15.4
2022-10-29T16:38:23.471Z,15.3
2022-10-29T16:43:54.582Z,15
2022-10-29T16:49:08.499Z,14.9
2022-10-29T16:54:44.947Z,14.8
2022-10-29T17:00:29.700Z,14.7
2022-10-29T17:05:50.402Z,14.4
2022-10-29T17:11:24.101Z,14.3
2022-10-29T17:17:05.007Z,14.4
2022-10-29T17:22:35.221Z,14.4
2022-10-29T17:28:18.644Z,14.3
2022-10-29T17:33:39.565Z,14.2
2022-10-29T17:39:33.076Z,14
2022-10-29T17:44:52.508Z,14
2022-10-29T17:50:13.468Z,13.8
2022-10-29T17:56:04.281Z,13.9
2022-10-29T18:01:39.781Z,13.8
2022-10-29T18:07:13.843Z,13.6
2022-10-29T18:12:38.760Z,13.7
2022-10-29T18:18:05.649Z,13.6
2022-10-29T18:23:45.752Z,13.6
2022-10-29T18:29:14.798Z,13.4
2022-10-29T18:35:00.238Z,13.5
2022-10-29T18:40:19.359Z,13.7
2022-10-29T18:45:57.417Z,13.5
2022-10-29T18:51:36.009Z,13.4
2022-10-29T18:57:02.606Z,13.3
2022-10-29T19:02:32.277Z,13.1
2022-10-29T19:07:58.761Z,13
2022-10-29T19:13:50.917Z,12.8
2022-10-29T19:19:28.906Z,12.8
2022-10-29T19:24:39.889Z,12.6
2022-10-29T19:30:26.381Z,12.7
2022-10-29T19:35:47.000Z,12.8
2022-10-29T19:41:27.375Z,12.8
2022-10-29T19:46:59.351Z,12.7
2022-10-29T19:52:29.997Z,12.9
2022-10-29T19:58:14.291Z,12.6
2022-10-29T20:03:41.353Z,12.3
2022-10-29T20:09:21.738Z,12.1
2022-10-29T20:14:49.390Z,12.2
2022-10-29T20:20:21.712Z,12.1
2022-10-29T20:25:55.976Z,12.2
2022-10-29T20:31:18.056Z,12.1
2022-10-29T20:36:49.140Z,12.1
2022-10-29T20:42:43.257Z,12.4
2022-10-29T20:47:58.559Z,11.9
2022-10-29T20:53:39.715Z,12.2
2022-10-29T20:59:13.949Z,12.2
2022-10-29T21:04:57.697Z,12.2
2022-10-29T21:10:26.648Z,12.6
2022-10-29T21:15:54.638Z,12.4
2022-10-29T21:21:37.977Z,12.3
2022-10-29T21:27:10.952Z,12.2
2022-10-29T21:32:19.909Z,12
2022-10-29T21:38:01.896Z,11.9
2022-10-29T21:43:27.896Z,12
2022-10-29T21:48:58.801Z,12.1
2022-10-29T21:54:38.226Z,11.9
2022-10-29T22:00:25.712Z,11.9
2022-10-29T22:05:57.745Z,11.9
2022-10-29T22:11:09.301Z,11.6
2022-10-29T22:17:09.241Z,11.2
2022-10-29T22:22:23.449Z,11.1
2022-10-29T22:28:00.335Z,11
2022-10-29T22:33:41.514Z,11
2022-10-29T22:39:03.705Z,11
2022-10-29T22:44:42.476Z,10.9
2022-10-29T22:50:16.618Z,11
2022-10-29T22:55:55.191Z,11.3
2022-10-29T23:01:19.470Z,11.5
2022-10-29T23:06:44.160Z,11.3
2022-10-29T23:12:21.057Z,11
2022-10-29T23:17:59.208Z,10.9
2022-10-29T23:23:25.157Z,11.2
2022-10-29T23:28:51.571Z,11.3
2022-10-29T23:34:45.565Z,11.2
2022-10-29T23:40:16.989Z,11.2
2022-10-29T23:45:36.697Z,11.2
2022-10-29T23:51:15.059Z,10.8
2022-10-29T23:56:35.762Z,10.9
